sensor_id;sensor_type;location;lat;lon;timestamp;P1;durP1;ratioP1;P2;durP2;ratioP2
66575;SDS011;53428;47.686;16.584;2023-10-31T00:01:57;9.63;;;3.63;;
66575;SDS011;53428;47.686;16.584;2023-10-31T00:06:56;15.27;;;2.85;;
66575;SDS011;53428;47.686;16.584;2023-10-31T00:11:57;7.28;;;2.70;;
66575;SDS011;53428;47.686;16.584;2023-10-31T00:16:59;8.95;;;3.10;;
66575;SDS011;53428;47.686;16.584;2023-10-31T00:21:58;7.78;;;3.10;;
66575;SDS011;53428;47.686;16.584;2023-10-31T00:26:58;7.72;;;3.17;;
66575;SDS011;53428;47.686;16.584;2023-10-31T00:31:57;5.35;;;2.83;;
66575;SDS011;53428;47.686;16.584;2023-10-31T00:36:57;7.68;;;2.45;;
66575;SDS011;53428;47.686;16.584;2023-10-31T00:41:56;5.85;;;3.17;;
66575;SDS011;53428;47.686;16.584;2023-10-31T00:46:55;4.72;;;2.50;;
66575;SDS011;53428;47.686;16.584;2023-10-31T00:51:55;4.80;;;3.33;;
66575;SDS011;53428;47.686;16.584;2023-10-31T00:56:54;10.80;;;3.13;;
66575;SDS011;53428;47.686;16.584;2023-10-31T01:01:53;3.88;;;2.58;;
66575;SDS011;53428;47.686;16.584;2023-10-31T01:06:53;8.57;;;4.38;;
66575;SDS011;53428;47.686;16.584;2023-10-31T01:11:52;9.23;;;4.20;;
66575;SDS011;53428;47.686;16.584;2023-10-31T01:16:51;8.98;;;3.20;;
66575;SDS011;53428;47.686;16.584;2023-10-31T01:21:50;11.48;;;3.08;;
66575;SDS011;53428;47.686;16.584;2023-10-31T01:26:50;9.20;;;2.72;;
66575;SDS011;53428;47.686;16.584;2023-10-31T01:31:49;5.22;;;2.97;;
66575;SDS011;53428;47.686;16.584;2023-10-31T01:36:48;4.85;;;2.72;;
66575;SDS011;53428;47.686;16.584;2023-10-31T01:41:47;8.48;;;3.05;;
66575;SDS011;53428;47.686;16.584;2023-10-31T01:46:47;5.57;;;2.75;;
66575;SDS011;53428;47.686;16.584;2023-10-31T01:51:47;13.52;;;3.10;;
66575;SDS011;53428;47.686;16.584;2023-10-31T01:56:46;10.98;;;2.60;;
66575;SDS011;53428;47.686;16.584;2023-10-31T02:06:48;5.03;;;2.30;;
66575;SDS011;53428;47.686;16.584;2023-10-31T02:11:49;9.85;;;2.90;;
66575;SDS011;53428;47.686;16.584;2023-10-31T02:16:49;6.95;;;2.50;;
66575;SDS011;53428;47.686;16.584;2023-10-31T02:21:48;6.75;;;2.90;;
66575;SDS011;53428;47.686;16.584;2023-10-31T02:26:48;4.75;;;2.42;;
66575;SDS011;53428;47.686;16.584;2023-10-31T02:31:47;10.07;;;2.53;;
66575;SDS011;53428;47.686;16.584;2023-10-31T02:36:46;6.80;;;3.22;;
66575;SDS011;53428;47.686;16.584;2023-10-31T02:41:46;15.45;;;3.90;;
66575;SDS011;53428;47.686;16.584;2023-10-31T02:46:45;5.35;;;2.97;;
66575;SDS011;53428;47.686;16.584;2023-10-31T02:51:44;3.85;;;2.60;;
66575;SDS011;53428;47.686;16.584;2023-10-31T02:56:43;9.65;;;2.85;;
66575;SDS011;53428;47.686;16.584;2023-10-31T03:01:43;11.23;;;3.55;;
66575;SDS011;53428;47.686;16.584;2023-10-31T03:06:43;6.88;;;3.28;;
66575;SDS011;53428;47.686;16.584;2023-10-31T03:11:42;8.45;;;3.10;;
66575;SDS011;53428;47.686;16.584;2023-10-31T03:16:41;4.43;;;2.55;;
66575;SDS011;53428;47.686;16.584;2023-10-31T03:21:41;5.68;;;3.33;;
66575;SDS011;53428;47.686;16.584;2023-10-31T03:26:40;8.10;;;2.92;;
66575;SDS011;53428;47.686;16.584;2023-10-31T03:31:40;7.57;;;3.78;;
66575;SDS011;53428;47.686;16.584;2023-10-31T03:36:39;8.85;;;2.67;;
66575;SDS011;53428;47.686;16.584;2023-10-31T03:41:38;6.85;;;2.63;;
66575;SDS011;53428;47.686;16.584;2023-10-31T03:46:37;5.32;;;2.58;;
66575;SDS011;53428;47.686;16.584;2023-10-31T03:51:37;9.70;;;2.90;;
66575;SDS011;53428;47.686;16.584;2023-10-31T03:56:39;4.80;;;2.65;;
66575;SDS011;53428;47.686;16.584;2023-10-31T04:01:42;4.50;;;2.22;;
66575;SDS011;53428;47.686;16.584;2023-10-31T04:06:41;5.65;;;2.38;;
66575;SDS011;53428;47.686;16.584;2023-10-31T04:11:42;3.60;;;2.33;;
66575;SDS011;53428;47.686;16.584;2023-10-31T04:16:42;6.82;;;2.08;;
66575;SDS011;53428;47.686;16.584;2023-10-31T04:21:44;5.20;;;2.35;;
66575;SDS011;53428;47.686;16.584;2023-10-31T04:26:43;12.05;;;2.72;;
66575;SDS011;53428;47.686;16.584;2023-10-31T04:31:43;4.25;;;1.75;;
66575;SDS011;53428;47.686;16.584;2023-10-31T04:36:42;5.95;;;2.22;;
66575;SDS011;53428;47.686;16.584;2023-10-31T04:41:41;4.93;;;1.55;;
66575;SDS011;53428;47.686;16.584;2023-10-31T04:46:40;4.03;;;1.85;;
66575;SDS011;53428;47.686;16.584;2023-10-31T04:51:40;6.20;;;1.98;;
66575;SDS011;53428;47.686;16.584;2023-10-31T04:56:39;5.43;;;1.60;;
66575;SDS011;53428;47.686;16.584;2023-10-31T05:01:38;6.13;;;2.38;;
66575;SDS011;53428;47.686;16.584;2023-10-31T05:06:38;3.78;;;1.75;;
66575;SDS011;53428;47.686;16.584;2023-10-31T05:11:37;3.22;;;1.80;;
66575;SDS011;53428;47.686;16.584;2023-10-31T05:16:39;6.78;;;2.55;;
66575;SDS011;53428;47.686;16.584;2023-10-31T05:21:39;6.18;;;2.35;;
66575;SDS011;53428;47.686;16.584;2023-10-31T05:26:39;8.52;;;2.95;;
66575;SDS011;53428;47.686;16.584;2023-10-31T05:31:41;7.60;;;2.50;;
66575;SDS011;53428;47.686;16.584;2023-10-31T05:36:43;7.13;;;2.70;;
66575;SDS011;53428;47.686;16.584;2023-10-31T05:41:42;5.00;;;1.90;;
66575;SDS011;53428;47.686;16.584;2023-10-31T05:46:41;5.25;;;2.20;;
66575;SDS011;53428;47.686;16.584;2023-10-31T05:51:40;7.28;;;2.08;;
66575;SDS011;53428;47.686;16.584;2023-10-31T05:56:40;7.60;;;1.70;;
66575;SDS011;53428;47.686;16.584;2023-10-31T06:01:39;3.53;;;1.70;;
66575;SDS011;53428;47.686;16.584;2023-10-31T06:06:38;2.85;;;1.15;;
66575;SDS011;53428;47.686;16.584;2023-10-31T06:11:40;0.60;;;0.60;;
66575;SDS011;53428;47.686;16.584;2023-10-31T06:21:40;3.47;;;0.45;;
66575;SDS011;53428;47.686;16.584;2023-10-31T06:26:39;0.77;;;0.50;;
66575;SDS011;53428;47.686;16.584;2023-10-31T06:31:39;1.38;;;0.50;;
66575;SDS011;53428;47.686;16.584;2023-10-31T06:36:38;0.20;;;0.20;;
66575;SDS011;53428;47.686;16.584;2023-10-31T06:41:37;0.28;;;0.22;;
66575;SDS011;53428;47.686;16.584;2023-10-31T06:46:36;1.85;;;0.20;;
66575;SDS011;53428;47.686;16.584;2023-10-31T06:51:35;0.17;;;0.17;;
66575;SDS011;53428;47.686;16.584;2023-10-31T06:56:35;1.55;;;0.30;;
66575;SDS011;53428;47.686;16.584;2023-10-31T07:01:34;0.70;;;0.70;;
66575;SDS011;53428;47.686;16.584;2023-10-31T07:06:33;0.10;;;0.10;;
66575;SDS011;53428;47.686;16.584;2023-10-31T07:11:32;0.98;;;0.40;;
66575;SDS011;53428;47.686;16.584;2023-10-31T07:16:32;0.50;;;0.38;;
66575;SDS011;53428;47.686;16.584;2023-10-31T07:21:32;0.60;;;0.38;;
66575;SDS011;53428;47.686;16.584;2023-10-31T07:26:31;0.28;;;0.13;;
66575;SDS011;53428;47.686;16.584;2023-10-31T07:31:30;0.98;;;0.35;;
66575;SDS011;53428;47.686;16.584;2023-10-31T07:36:29;1.42;;;0.40;;
66575;SDS011;53428;47.686;16.584;2023-10-31T07:41:30;0.70;;;0.28;;
66575;SDS011;53428;47.686;16.584;2023-10-31T07:46:30;0.40;;;0.40;;
66575;SDS011;53428;47.686;16.584;2023-10-31T07:51:29;0.30;;;0.30;;
66575;SDS011;53428;47.686;16.584;2023-10-31T07:56:28;4.32;;;0.47;;
66575;SDS011;53428;47.686;16.584;2023-10-31T08:01:28;0.52;;;0.20;;
66575;SDS011;53428;47.686;16.584;2023-10-31T08:06:28;0.50;;;0.47;;
66575;SDS011;53428;47.686;16.584;2023-10-31T08:11:27;1.23;;;0.40;;
66575;SDS011;53428;47.686;16.584;2023-10-31T08:16:27;1.27;;;0.50;;
66575;SDS011;53428;47.686;16.584;2023-10-31T08:21:27;0.40;;;0.40;;
66575;SDS011;53428;47.686;16.584;2023-10-31T08:26:32;0.73;;;0.40;;
66575;SDS011;53428;47.686;16.584;2023-10-31T08:31:31;1.60;;;0.50;;
66575;SDS011;53428;47.686;16.584;2023-10-31T08:36:31;0.63;;;0.63;;
66575;SDS011;53428;47.686;16.584;2023-10-31T08:41:30;1.02;;;0.43;;
66575;SDS011;53428;47.686;16.584;2023-10-31T08:46:29;3.58;;;1.00;;
66575;SDS011;53428;47.686;16.584;2023-10-31T08:51:29;1.20;;;0.90;;
66575;SDS011;53428;47.686;16.584;2023-10-31T08:56:28;2.25;;;1.48;;
66575;SDS011;53428;47.686;16.584;2023-10-31T09:01:27;1.75;;;1.00;;
66575;SDS011;53428;47.686;16.584;2023-10-31T09:06:29;5.20;;;0.93;;
66575;SDS011;53428;47.686;16.584;2023-10-31T09:11:28;4.80;;;1.30;;
66575;SDS011;53428;47.686;16.584;2023-10-31T09:16:28;3.53;;;1.88;;
66575;SDS011;53428;47.686;16.584;2023-10-31T09:21:27;7.05;;;4.80;;
66575;SDS011;53428;47.686;16.584;2023-10-31T09:26:26;5.38;;;2.03;;
66575;SDS011;53428;47.686;16.584;2023-10-31T09:31:25;1.48;;;1.20;;
66575;SDS011;53428;47.686;16.584;2023-10-31T09:36:25;2.10;;;1.08;;
66575;SDS011;53428;47.686;16.584;2023-10-31T09:41:24;5.88;;;1.02;;
66575;SDS011;53428;47.686;16.584;2023-10-31T09:46:24;1.42;;;0.80;;
66575;SDS011;53428;47.686;16.584;2023-10-31T09:51:23;3.75;;;0.93;;
66575;SDS011;53428;47.686;16.584;2023-10-31T09:56:23;2.28;;;1.23;;
66575;SDS011;53428;47.686;16.584;2023-10-31T10:01:22;0.75;;;0.65;;
66575;SDS011;53428;47.686;16.584;2023-10-31T10:06:22;2.00;;;1.20;;
66575;SDS011;53428;47.686;16.584;2023-10-31T10:11:22;1.27;;;0.70;;
66575;SDS011;53428;47.686;16.584;2023-10-31T10:16:28;3.58;;;0.80;;
66575;SDS011;53428;47.686;16.584;2023-10-31T10:21:28;1.10;;;1.00;;
66575;SDS011;53428;47.686;16.584;2023-10-31T10:26:46;5.10;;;1.17;;
66575;SDS011;53428;47.686;16.584;2023-10-31T10:31:46;5.07;;;0.55;;
66575;SDS011;53428;47.686;16.584;2023-10-31T10:36:46;1.83;;;0.98;;
66575;SDS011;53428;47.686;16.584;2023-10-31T10:41:54;3.95;;;1.00;;
66575;SDS011;53428;47.686;16.584;2023-10-31T10:46:57;2.78;;;1.02;;
66575;SDS011;53428;47.686;16.584;2023-10-31T10:52:22;2.15;;;0.80;;
66575;SDS011;53428;47.686;16.584;2023-10-31T10:57:37;2.08;;;0.70;;
66575;SDS011;53428;47.686;16.584;2023-10-31T11:02:41;5.90;;;1.08;;
66575;SDS011;53428;47.686;16.584;2023-10-31T11:07:42;1.70;;;0.75;;
66575;SDS011;53428;47.686;16.584;2023-10-31T11:12:42;1.85;;;0.47;;
66575;SDS011;53428;47.686;16.584;2023-10-31T11:17:42;1.17;;;0.60;;
66575;SDS011;53428;47.686;16.584;2023-10-31T11:22:44;2.75;;;0.90;;
66575;SDS011;53428;47.686;16.584;2023-10-31T11:27:45;1.20;;;0.70;;
66575;SDS011;53428;47.686;16.584;2023-10-31T11:32:47;1.38;;;0.30;;
66575;SDS011;53428;47.686;16.584;2023-10-31T11:38:05;1.17;;;0.60;;
66575;SDS011;53428;47.686;16.584;2023-10-31T11:43:06;1.65;;;0.85;;
66575;SDS011;53428;47.686;16.584;2023-10-31T11:48:07;1.48;;;1.15;;
66575;SDS011;53428;47.686;16.584;2023-10-31T11:53:09;0.63;;;0.40;;
66575;SDS011;53428;47.686;16.584;2023-10-31T12:03:14;4.47;;;0.80;;
66575;SDS011;53428;47.686;16.584;2023-10-31T12:08:15;1.75;;;0.68;;
66575;SDS011;53428;47.686;16.584;2023-10-31T12:13:14;0.52;;;0.30;;
66575;SDS011;53428;47.686;16.584;2023-10-31T12:18:13;1.45;;;0.70;;
66575;SDS011;53428;47.686;16.584;2023-10-31T12:23:13;1.98;;;0.63;;
66575;SDS011;53428;47.686;16.584;2023-10-31T12:28:16;1.27;;;0.40;;
66575;SDS011;53428;47.686;16.584;2023-10-31T12:33:18;0.65;;;0.65;;
66575;SDS011;53428;47.686;16.584;2023-10-31T12:38:18;0.30;;;0.30;;
66575;SDS011;53428;47.686;16.584;2023-10-31T12:43:18;0.17;;;0.17;;
66575;SDS011;53428;47.686;16.584;2023-10-31T12:48:23;0.73;;;0.68;;
66575;SDS011;53428;47.686;16.584;2023-10-31T12:53:24;1.08;;;0.98;;
66575;SDS011;53428;47.686;16.584;2023-10-31T12:58:23;2.25;;;1.02;;
66575;SDS011;53428;47.686;16.584;2023-10-31T13:03:22;0.85;;;0.80;;
66575;SDS011;53428;47.686;16.584;2023-10-31T13:08:22;1.98;;;0.82;;
66575;SDS011;53428;47.686;16.584;2023-10-31T13:13:21;0.45;;;0.35;;
66575;SDS011;53428;47.686;16.584;2023-10-31T13:18:21;1.23;;;0.73;;
66575;SDS011;53428;47.686;16.584;2023-10-31T13:23:21;4.68;;;2.42;;
66575;SDS011;53428;47.686;16.584;2023-10-31T13:28:20;5.10;;;2.65;;
66575;SDS011;53428;47.686;16.584;2023-10-31T13:33:20;4.70;;;1.65;;
66575;SDS011;53428;47.686;16.584;2023-10-31T13:38:20;0.98;;;0.80;;
66575;SDS011;53428;47.686;16.584;2023-10-31T13:43:19;1.75;;;1.38;;
66575;SDS011;53428;47.686;16.584;2023-10-31T13:48:18;5.45;;;1.85;;
66575;SDS011;53428;47.686;16.584;2023-10-31T13:53:18;2.13;;;0.93;;
66575;SDS011;53428;47.686;16.584;2023-10-31T13:58:17;1.63;;;0.80;;
66575;SDS011;53428;47.686;16.584;2023-10-31T14:03:18;0.82;;;0.47;;
66575;SDS011;53428;47.686;16.584;2023-10-31T14:08:18;0.98;;;0.63;;
66575;SDS011;53428;47.686;16.584;2023-10-31T14:13:18;2.30;;;0.38;;
66575;SDS011;53428;47.686;16.584;2023-10-31T14:18:19;3.50;;;0.40;;
66575;SDS011;53428;47.686;16.584;2023-10-31T14:23:18;0.63;;;0.30;;
66575;SDS011;53428;47.686;16.584;2023-10-31T14:28:18;0.22;;;0.22;;
66575;SDS011;53428;47.686;16.584;2023-10-31T14:33:18;0.08;;;0.08;;
66575;SDS011;53428;47.686;16.584;2023-10-31T14:38:17;0.57;;;0.47;;
66575;SDS011;53428;47.686;16.584;2023-10-31T14:43:16;3.22;;;0.30;;
66575;SDS011;53428;47.686;16.584;2023-10-31T14:48:17;0.50;;;0.38;;
66575;SDS011;53428;47.686;16.584;2023-10-31T14:53:17;0.73;;;0.57;;
66575;SDS011;53428;47.686;16.584;2023-10-31T14:58:19;4.43;;;0.93;;
66575;SDS011;53428;47.686;16.584;2023-10-31T15:03:19;1.02;;;0.47;;
66575;SDS011;53428;47.686;16.584;2023-10-31T15:08:18;0.82;;;0.55;;
66575;SDS011;53428;47.686;16.584;2023-10-31T15:13:18;0.43;;;0.30;;
66575;SDS011;53428;47.686;16.584;2023-10-31T15:18:17;0.43;;;0.43;;
66575;SDS011;53428;47.686;16.584;2023-10-31T15:23:17;0.98;;;0.63;;
66575;SDS011;53428;47.686;16.584;2023-10-31T15:28:16;1.33;;;0.70;;
66575;SDS011;53428;47.686;16.584;2023-10-31T15:33:16;1.42;;;1.00;;
66575;SDS011;53428;47.686;16.584;2023-10-31T15:38:15;5.60;;;1.50;;
66575;SDS011;53428;47.686;16.584;2023-10-31T15:43:14;3.70;;;2.05;;
66575;SDS011;53428;47.686;16.584;2023-10-31T15:48:14;3.25;;;1.83;;
66575;SDS011;53428;47.686;16.584;2023-10-31T15:53:13;8.77;;;4.85;;
66575;SDS011;53428;47.686;16.584;2023-10-31T15:58:12;3.05;;;2.00;;
66575;SDS011;53428;47.686;16.584;2023-10-31T16:03:12;3.72;;;2.40;;
66575;SDS011;53428;47.686;16.584;2023-10-31T16:08:11;2.95;;;1.95;;
66575;SDS011;53428;47.686;16.584;2023-10-31T16:13:10;2.88;;;1.40;;
66575;SDS011;53428;47.686;16.584;2023-10-31T16:18:10;3.22;;;1.95;;
66575;SDS011;53428;47.686;16.584;2023-10-31T16:23:09;2.42;;;1.55;;
66575;SDS011;53428;47.686;16.584;2023-10-31T16:28:09;5.05;;;1.65;;
66575;SDS011;53428;47.686;16.584;2023-10-31T16:33:10;2.67;;;1.52;;
66575;SDS011;53428;47.686;16.584;2023-10-31T16:38:09;17.00;;;8.13;;
66575;SDS011;53428;47.686;16.584;2023-10-31T16:43:08;5.45;;;1.65;;
66575;SDS011;53428;47.686;16.584;2023-10-31T16:48:08;3.13;;;1.42;;
66575;SDS011;53428;47.686;16.584;2023-10-31T16:53:07;6.38;;;2.50;;
66575;SDS011;53428;47.686;16.584;2023-10-31T16:58:06;8.13;;;1.88;;
66575;SDS011;53428;47.686;16.584;2023-10-31T17:03:09;7.28;;;2.10;;
66575;SDS011;53428;47.686;16.584;2023-10-31T17:08:11;5.10;;;2.30;;
66575;SDS011;53428;47.686;16.584;2023-10-31T17:13:11;3.65;;;2.35;;
66575;SDS011;53428;47.686;16.584;2023-10-31T17:18:11;4.85;;;2.80;;
66575;SDS011;53428;47.686;16.584;2023-10-31T17:23:12;10.25;;;7.13;;
66575;SDS011;53428;47.686;16.584;2023-10-31T17:28:11;21.50;;;14.25;;
66575;SDS011;53428;47.686;16.584;2023-10-31T17:33:11;21.23;;;13.68;;
66575;SDS011;53428;47.686;16.584;2023-10-31T17:38:11;48.00;;;29.48;;
66575;SDS011;53428;47.686;16.584;2023-10-31T17:43:10;27.63;;;17.42;;
66575;SDS011;53428;47.686;16.584;2023-10-31T17:48:10;19.50;;;11.90;;
66575;SDS011;53428;47.686;16.584;2023-10-31T17:53:09;26.17;;;16.80;;
66575;SDS011;53428;47.686;16.584;2023-10-31T17:58:09;24.48;;;16.55;;
66575;SDS011;53428;47.686;16.584;2023-10-31T18:03:09;24.00;;;15.52;;
66575;SDS011;53428;47.686;16.584;2023-10-31T18:08:08;22.75;;;13.98;;
66575;SDS011;53428;47.686;16.584;2023-10-31T18:13:08;26.77;;;16.40;;
66575;SDS011;53428;47.686;16.584;2023-10-31T18:18:07;24.58;;;15.25;;
66575;SDS011;53428;47.686;16.584;2023-10-31T18:23:07;66.82;;;31.05;;
66575;SDS011;53428;47.686;16.584;2023-10-31T18:28:06;22.52;;;12.70;;
66575;SDS011;53428;47.686;16.584;2023-10-31T18:33:05;14.23;;;8.45;;
66575;SDS011;53428;47.686;16.584;2023-10-31T18:38:05;16.63;;;9.13;;
66575;SDS011;53428;47.686;16.584;2023-10-31T18:43:06;12.75;;;7.57;;
66575;SDS011;53428;47.686;16.584;2023-10-31T18:48:05;20.52;;;10.85;;
66575;SDS011;53428;47.686;16.584;2023-10-31T18:53:04;17.50;;;9.70;;
66575;SDS011;53428;47.686;16.584;2023-10-31T18:58:05;14.23;;;7.43;;
66575;SDS011;53428;47.686;16.584;2023-10-31T19:03:05;11.18;;;7.05;;
66575;SDS011;53428;47.686;16.584;2023-10-31T19:08:05;7.97;;;5.78;;
66575;SDS011;53428;47.686;16.584;2023-10-31T19:13:04;7.65;;;4.70;;
66575;SDS011;53428;47.686;16.584;2023-10-31T19:18:04;4.20;;;3.50;;
66575;SDS011;53428;47.686;16.584;2023-10-31T19:23:04;7.00;;;5.00;;
66575;SDS011;53428;47.686;16.584;2023-10-31T19:28:04;7.50;;;4.97;;
66575;SDS011;53428;47.686;16.584;2023-10-31T19:33:03;14.35;;;6.80;;
66575;SDS011;53428;47.686;16.584;2023-10-31T19:38:03;8.73;;;6.53;;
66575;SDS011;53428;47.686;16.584;2023-10-31T19:43:03;12.82;;;8.35;;
66575;SDS011;53428;47.686;16.584;2023-10-31T19:48:03;18.20;;;10.93;;
66575;SDS011;53428;47.686;16.584;2023-10-31T19:53:02;21.90;;;12.50;;
66575;SDS011;53428;47.686;16.584;2023-10-31T19:58:03;23.48;;;13.75;;
66575;SDS011;53428;47.686;16.584;2023-10-31T20:03:02;22.88;;;13.70;;
66575;SDS011;53428;47.686;16.584;2023-10-31T20:08:02;20.65;;;13.68;;
66575;SDS011;53428;47.686;16.584;2023-10-31T20:13:02;25.52;;;14.63;;
66575;SDS011;53428;47.686;16.584;2023-10-31T20:18:01;29.10;;;14.15;;
66575;SDS011;53428;47.686;16.584;2023-10-31T20:23:00;20.52;;;13.80;;
66575;SDS011;53428;47.686;16.584;2023-10-31T20:28:00;21.88;;;13.23;;
66575;SDS011;53428;47.686;16.584;2023-10-31T20:33:00;22.35;;;14.77;;
66575;SDS011;53428;47.686;16.584;2023-10-31T20:37:59;20.45;;;13.15;;
66575;SDS011;53428;47.686;16.584;2023-10-31T20:42:59;17.20;;;11.15;;
66575;SDS011;53428;47.686;16.584;2023-10-31T20:47:58;16.80;;;9.77;;
66575;SDS011;53428;47.686;16.584;2023-10-31T20:52:58;11.57;;;7.65;;
66575;SDS011;53428;47.686;16.584;2023-10-31T20:57:59;14.00;;;9.35;;
66575;SDS011;53428;47.686;16.584;2023-10-31T21:02:59;20.77;;;11.20;;
66575;SDS011;53428;47.686;16.584;2023-10-31T21:08:03;16.60;;;10.23;;
66575;SDS011;53428;47.686;16.584;2023-10-31T21:13:03;21.63;;;12.85;;
66575;SDS011;53428;47.686;16.584;2023-10-31T21:18:03;24.15;;;14.15;;
66575;SDS011;53428;47.686;16.584;2023-10-31T21:23:03;21.77;;;11.52;;
66575;SDS011;53428;47.686;16.584;2023-10-31T21:28:03;14.18;;;7.80;;
66575;SDS011;53428;47.686;16.584;2023-10-31T21:33:02;17.73;;;6.35;;
66575;SDS011;53428;47.686;16.584;2023-10-31T21:38:02;11.63;;;6.03;;
66575;SDS011;53428;47.686;16.584;2023-10-31T21:43:01;11.00;;;7.22;;
66575;SDS011;53428;47.686;16.584;2023-10-31T21:48:01;12.75;;;5.97;;
66575;SDS011;53428;47.686;16.584;2023-10-31T21:53:04;12.65;;;4.90;;
66575;SDS011;53428;47.686;16.584;2023-10-31T21:58:04;8.98;;;4.35;;
66575;SDS011;53428;47.686;16.584;2023-10-31T22:03:03;14.77;;;7.57;;
66575;SDS011;53428;47.686;16.584;2023-10-31T22:08:03;14.15;;;6.65;;
66575;SDS011;53428;47.686;16.584;2023-10-31T22:13:02;34.85;;;17.95;;
66575;SDS011;53428;47.686;16.584;2023-10-31T22:18:03;24.83;;;12.90;;
66575;SDS011;53428;47.686;16.584;2023-10-31T22:23:03;21.83;;;10.80;;
66575;SDS011;53428;47.686;16.584;2023-10-31T22:28:02;14.52;;;8.88;;
66575;SDS011;53428;47.686;16.584;2023-10-31T22:33:01;25.55;;;10.55;;
66575;SDS011;53428;47.686;16.584;2023-10-31T22:38:01;13.63;;;6.85;;
66575;SDS011;53428;47.686;16.584;2023-10-31T22:43:01;16.33;;;6.22;;
66575;SDS011;53428;47.686;16.584;2023-10-31T22:48:01;10.20;;;6.82;;
66575;SDS011;53428;47.686;16.584;2023-10-31T22:53:01;6.45;;;4.28;;
66575;SDS011;53428;47.686;16.584;2023-10-31T22:58:01;11.18;;;4.78;;
66575;SDS011;53428;47.686;16.584;2023-10-31T23:03:01;6.72;;;4.32;;
66575;SDS011;53428;47.686;16.584;2023-10-31T23:08:01;8.40;;;5.95;;
66575;SDS011;53428;47.686;16.584;2023-10-31T23:13:01;7.10;;;3.88;;
66575;SDS011;53428;47.686;16.584;2023-10-31T23:18:01;10.68;;;4.10;;
66575;SDS011;53428;47.686;16.584;2023-10-31T23:23:00;7.47;;;3.92;;
66575;SDS011;53428;47.686;16.584;2023-10-31T23:28:00;4.22;;;3.28;;
66575;SDS011;53428;47.686;16.584;2023-10-31T23:32:59;4.10;;;2.92;;
66575;SDS011;53428;47.686;16.584;2023-10-31T23:37:59;4.57;;;3.13;;
66575;SDS011;53428;47.686;16.584;2023-10-31T23:42:58;6.30;;;3.03;;
66575;SDS011;53428;47.686;16.584;2023-10-31T23:47:58;7.30;;;3.50;;
66575;SDS011;53428;47.686;16.584;2023-10-31T23:52:57;5.85;;;2.95;;
66575;SDS011;53428;47.686;16.584;2023-10-31T23:57:57;5.68;;;2.90;;
